sensor_id;sensor_type;location;lat;lon;timestamp;pressure;altitude;pressure_sealevel;temperature;humidity
60918;BME280;46792;38.854;-9.384;2022-12-18T00:01:19;99871.81;;;12.26;100.00
60918;BME280;46792;38.854;-9.384;2022-12-18T00:03:20;99868.03;;;12.32;100.00
60918;BME280;46792;38.854;-9.384;2022-12-18T00:05:21;99877.78;;;12.38;100.00
60918;BME280;46792;38.854;-9.384;2022-12-18T00:07:22;99863.44;;;12.43;100.00
60918;BME280;46792;38.854;-9.384;2022-12-18T00:09:22;99861.53;;;12.38;100.00
60918;BME280;46792;38.854;-9.384;2022-12-18T00:11:25;99865.88;;;12.44;100.00
60918;BME280;46792;38.854;-9.384;2022-12-18T00:13:27;99868.03;;;12.47;100.00
60918;BME280;46792;38.854;-9.384;2022-12-18T00:15:27;99853.44;;;12.48;100.00
60918;BME280;46792;38.854;-9.384;2022-12-18T00:17:28;99852.63;;;12.69;100.00
60918;BME280;46792;38.854;-9.384;2022-12-18T00:19:28;99852.34;;;12.65;100.00
60918;BME280;46792;38.854;-9.384;2022-12-18T00:21:48;99854.25;;;12.59;100.00
60918;BME280;46792;38.854;-9.384;2022-12-18T00:23:50;99846.94;;;12.55;100.00
60918;BME280;46792;38.854;-9.384;2022-12-18T00:25:51;99840.44;;;12.51;100.00
60918;BME280;46792;38.854;-9.384;2022-12-18T00:27:52;99835.28;;;12.44;100.00
60918;BME280;46792;38.854;-9.384;2022-12-18T00:29:53;99842.84;;;12.37;100.00
60918;BME280;46792;38.854;-9.384;2022-12-18T00:32:12;99837.44;;;12.42;100.00
60918;BME280;46792;38.854;-9.384;2022-12-18T00:34:21;99839.06;;;12.43;100.00
60918;BME280;46792;38.854;-9.384;2022-12-18T00:36:27;99843.13;;;12.45;100.00
60918;BME280;46792;38.854;-9.384;2022-12-18T00:38:28;99834.50;;;12.54;100.00
60918;BME280;46792;38.854;-9.384;2022-12-18T00:40:29;99846.94;;;12.55;100.00
60918;BME280;46792;38.854;-9.384;2022-12-18T00:42:29;99840.97;;;12.47;100.00
60918;BME280;46792;38.854;-9.384;2022-12-18T00:44:48;99840.44;;;12.40;100.00
60918;BME280;46792;38.854;-9.384;2022-12-18T00:46:49;99836.38;;;12.43;100.00
60918;BME280;46792;38.854;-9.384;2022-12-18T00:48:50;99854.78;;;12.46;100.00
60918;BME280;46792;38.854;-9.384;2022-12-18T00:50:50;99849.09;;;12.53;100.00
60918;BME280;46792;38.854;-9.384;2022-12-18T00:52:52;99859.94;;;12.53;100.00
60918;BME280;46792;38.854;-9.384;2022-12-18T00:55:11;99859.97;;;12.58;100.00
60918;BME280;46792;38.854;-9.384;2022-12-18T00:57:36;99856.41;;;12.68;100.00
60918;BME280;46792;38.854;-9.384;2022-12-18T00:59:40;99849.13;;;12.73;100.00
60918;BME280;46792;38.854;-9.384;2022-12-18T01:01:41;99851.81;;;12.78;100.00
60918;BME280;46792;38.854;-9.384;2022-12-18T01:03:42;99850.72;;;12.80;100.00
60918;BME280;46792;38.854;-9.384;2022-12-18T01:05:45;99854.53;;;12.78;100.00
60918;BME280;46792;38.854;-9.384;2022-12-18T01:07:48;99858.06;;;12.79;100.00
60918;BME280;46792;38.854;-9.384;2022-12-18T01:09:51;99852.91;;;12.77;100.00
60918;BME280;46792;38.854;-9.384;2022-12-18T01:11:51;99845.88;;;12.87;100.00
60918;BME280;46792;38.854;-9.384;2022-12-18T01:13:53;99846.13;;;12.96;100.00
60918;BME280;46792;38.854;-9.384;2022-12-18T01:15:56;99843.69;;;12.94;100.00
60918;BME280;46792;38.854;-9.384;2022-12-18T01:17:56;99842.06;;;12.98;100.00
60918;BME280;46792;38.854;-9.384;2022-12-18T01:19:57;99842.06;;;13.03;100.00
60918;BME280;46792;38.854;-9.384;2022-12-18T01:21:58;99844.75;;;13.08;100.00
60918;BME280;46792;38.854;-9.384;2022-12-18T01:23:59;99847.75;;;13.07;100.00
60918;BME280;46792;38.854;-9.384;2022-12-18T01:26:11;99846.94;;;13.06;100.00
60918;BME280;46792;38.854;-9.384;2022-12-18T01:28:12;99836.09;;;13.01;100.00
60918;BME280;46792;38.854;-9.384;2022-12-18T01:30:13;99849.09;;;13.09;100.00
60918;BME280;46792;38.854;-9.384;2022-12-18T01:32:13;99844.50;;;13.15;100.00
60918;BME280;46792;38.854;-9.384;2022-12-18T01:34:17;99845.84;;;13.23;100.00
60918;BME280;46792;38.854;-9.384;2022-12-18T01:36:25;99841.50;;;13.22;100.00
60918;BME280;46792;38.854;-9.384;2022-12-18T01:38:44;99832.50;;;13.32;100.00
60918;BME280;46792;38.854;-9.384;2022-12-18T01:40:45;99846.06;;;13.32;100.00
60918;BME280;46792;38.854;-9.384;2022-12-18T01:42:50;99842.00;;;13.34;100.00
60918;BME280;46792;38.854;-9.384;2022-12-18T01:45:22;99840.91;;;13.35;100.00
60918;BME280;46792;38.854;-9.384;2022-12-18T01:47:39;99850.97;;;13.40;100.00
60918;BME280;46792;38.854;-9.384;2022-12-18T01:49:40;99853.94;;;13.44;100.00
60918;BME280;46792;38.854;-9.384;2022-12-18T01:51:42;99853.09;;;13.38;100.00
60918;BME280;46792;38.854;-9.384;2022-12-18T01:53:44;99850.69;;;13.47;100.00
60918;BME280;46792;38.854;-9.384;2022-12-18T01:55:47;99856.38;;;13.40;100.00
60918;BME280;46792;38.854;-9.384;2022-12-18T01:57:51;99861.00;;;13.39;100.00
60918;BME280;46792;38.854;-9.384;2022-12-18T02:00:15;99860.44;;;13.43;100.00
60918;BME280;46792;38.854;-9.384;2022-12-18T02:02:17;99869.13;;;13.34;100.00
60918;BME280;46792;38.854;-9.384;2022-12-18T02:09:35;99889.72;;;13.41;100.00
60918;BME280;46792;38.854;-9.384;2022-12-18T02:18:36;99875.09;;;13.52;100.00
60918;BME280;46792;38.854;-9.384;2022-12-18T02:26:30;99885.63;;;13.59;100.00
60918;BME280;46792;38.854;-9.384;2022-12-18T02:29:13;99888.56;;;13.73;100.00
60918;BME280;46792;38.854;-9.384;2022-12-18T02:31:22;99878.78;;;13.77;100.00
60918;BME280;46792;38.854;-9.384;2022-12-18T02:33:27;99875.56;;;13.69;100.00
60918;BME280;46792;38.854;-9.384;2022-12-18T02:35:47;99867.44;;;13.69;100.00
60918;BME280;46792;38.854;-9.384;2022-12-18T02:38:07;99853.03;;;13.69;100.00
60918;BME280;46792;38.854;-9.384;2022-12-18T02:40:28;99878.00;;;13.76;100.00
60918;BME280;46792;38.854;-9.384;2022-12-18T02:42:29;99854.91;;;13.74;100.00
60918;BME280;46792;38.854;-9.384;2022-12-18T02:44:31;99867.13;;;13.76;100.00
60918;BME280;46792;38.854;-9.384;2022-12-18T02:46:40;99872.03;;;13.74;100.00
60918;BME280;46792;38.854;-9.384;2022-12-18T02:48:46;99870.94;;;13.75;100.00
60918;BME280;46792;38.854;-9.384;2022-12-18T02:51:16;99884.25;;;13.72;100.00
60918;BME280;46792;38.854;-9.384;2022-12-18T02:53:26;99881.78;;;13.75;100.00
60918;BME280;46792;38.854;-9.384;2022-12-18T02:58:26;99883.66;;;13.85;100.00
60918;BME280;46792;38.854;-9.384;2022-12-18T03:05:04;99886.66;;;13.78;100.00
60918;BME280;46792;38.854;-9.384;2022-12-18T03:07:12;99888.06;;;13.71;100.00
60918;BME280;46792;38.854;-9.384;2022-12-18T03:09:39;99888.84;;;13.71;100.00
60918;BME280;46792;38.854;-9.384;2022-12-18T03:12:15;99881.00;;;13.69;100.00
60918;BME280;46792;38.854;-9.384;2022-12-18T03:14:25;99883.72;;;13.69;100.00
60918;BME280;46792;38.854;-9.384;2022-12-18T03:16:47;99885.09;;;13.62;100.00
60918;BME280;46792;38.854;-9.384;2022-12-18T03:18:56;99884.81;;;13.68;100.00
60918;BME280;46792;38.854;-9.384;2022-12-18T03:21:04;99877.50;;;13.59;100.00
60918;BME280;46792;38.854;-9.384;2022-12-18T03:23:24;99883.72;;;13.64;100.00
60918;BME280;46792;38.854;-9.384;2022-12-18T03:25:28;99868.00;;;13.61;100.00
60918;BME280;46792;38.854;-9.384;2022-12-18T03:27:33;99871.22;;;13.68;100.00
60918;BME280;46792;38.854;-9.384;2022-12-18T03:29:45;99874.19;;;13.72;100.00
60918;BME280;46792;38.854;-9.384;2022-12-18T03:31:54;99867.69;;;13.68;100.00
60918;BME280;46792;38.854;-9.384;2022-12-18T03:34:03;99870.16;;;13.64;100.00
60918;BME280;46792;38.854;-9.384;2022-12-18T03:36:14;99872.56;;;13.71;100.00
60918;BME280;46792;38.854;-9.384;2022-12-18T03:38:15;99871.22;;;13.68;100.00
60918;BME280;46792;38.854;-9.384;2022-12-18T03:40:20;99879.38;;;13.68;100.00
60918;BME280;46792;38.854;-9.384;2022-12-18T03:44:47;99876.13;;;13.66;100.00
60918;BME280;46792;38.854;-9.384;2022-12-18T03:51:57;99893.47;;;13.71;100.00
60918;BME280;46792;38.854;-9.384;2022-12-18T03:54:02;99887.53;;;13.63;100.00
60918;BME280;46792;38.854;-9.384;2022-12-18T03:56:13;99888.84;;;13.66;100.00
60918;BME280;46792;38.854;-9.384;2022-12-18T03:58:18;99884.00;;;13.63;100.00
60918;BME280;46792;38.854;-9.384;2022-12-18T04:00:30;99879.66;;;13.62;100.00
60918;BME280;46792;38.854;-9.384;2022-12-18T04:02:43;99876.13;;;13.66;100.00
60918;BME280;46792;38.854;-9.384;2022-12-18T04:04:51;99875.88;;;13.63;100.00
60918;BME280;46792;38.854;-9.384;2022-12-18T04:06:53;99875.00;;;13.73;100.00
60918;BME280;46792;38.854;-9.384;2022-12-18T04:08:54;99872.03;;;13.69;100.00
60918;BME280;46792;38.854;-9.384;2022-12-18T04:10:59;99871.72;;;13.76;100.00
60918;BME280;46792;38.854;-9.384;2022-12-18T04:13:00;99874.72;;;13.79;100.00
60918;BME280;46792;38.854;-9.384;2022-12-18T04:15:03;99874.50;;;13.71;100.00
60918;BME280;46792;38.854;-9.384;2022-12-18T04:17:04;99872.53;;;13.81;100.00
60918;BME280;46792;38.854;-9.384;2022-12-18T04:19:06;99879.34;;;13.74;100.00
60918;BME280;46792;38.854;-9.384;2022-12-18T04:21:12;99872.03;;;13.74;100.00
60918;BME280;46792;38.854;-9.384;2022-12-18T04:23:13;99873.66;;;13.75;100.00
60918;BME280;46792;38.854;-9.384;2022-12-18T04:25:14;99876.38;;;13.70;100.00
60918;BME280;46792;38.854;-9.384;2022-12-18T04:27:27;99860.09;;;13.70;100.00
60918;BME280;46792;38.854;-9.384;2022-12-18T04:29:27;99855.75;;;13.74;100.00
60918;BME280;46792;38.854;-9.384;2022-12-18T04:31:28;99842.66;;;13.87;100.00
60918;BME280;46792;38.854;-9.384;2022-12-18T04:33:30;99848.91;;;13.87;100.00
60918;BME280;46792;38.854;-9.384;2022-12-18T04:35:30;99849.72;;;13.82;100.00
60918;BME280;46792;38.854;-9.384;2022-12-18T04:37:31;99845.38;;;13.81;100.00
60918;BME280;46792;38.854;-9.384;2022-12-18T04:39:32;99851.41;;;13.78;100.00
60918;BME280;46792;38.854;-9.384;2022-12-18T04:41:38;99843.50;;;13.77;100.00
60918;BME280;46792;38.854;-9.384;2022-12-18T04:43:57;99850.06;;;13.71;100.00
60918;BME280;46792;38.854;-9.384;2022-12-18T04:46:10;99845.72;;;13.69;100.00
60918;BME280;46792;38.854;-9.384;2022-12-18T04:48:10;99848.16;;;13.66;100.00
60918;BME280;46792;38.854;-9.384;2022-12-18T04:50:11;99848.44;;;13.64;100.00
60918;BME280;46792;38.854;-9.384;2022-12-18T04:52:11;99837.84;;;13.73;100.00
60918;BME280;46792;38.854;-9.384;2022-12-18T04:54:13;99847.63;;;13.69;100.00
60918;BME280;46792;38.854;-9.384;2022-12-18T04:58:53;99855.50;;;13.65;100.00
60918;BME280;46792;38.854;-9.384;2022-12-18T05:01:13;99865.28;;;13.66;100.00
60918;BME280;46792;38.854;-9.384;2022-12-18T05:03:14;99856.59;;;13.59;100.00
60918;BME280;46792;38.854;-9.384;2022-12-18T05:05:15;99865.81;;;13.58;100.00
60918;BME280;46792;38.854;-9.384;2022-12-18T05:07:16;99867.44;;;13.64;100.00
60918;BME280;46792;38.854;-9.384;2022-12-18T05:09:16;99860.38;;;13.68;100.00
60918;BME280;46792;38.854;-9.384;2022-12-18T05:11:17;99865.03;;;13.63;100.00
60918;BME280;46792;38.854;-9.384;2022-12-18T05:13:18;99853.59;;;13.66;100.00
60918;BME280;46792;38.854;-9.384;2022-12-18T05:15:18;99858.75;;;13.62;100.00
60918;BME280;46792;38.854;-9.384;2022-12-18T05:17:19;99865.28;;;13.66;100.00
60918;BME280;46792;38.854;-9.384;2022-12-18T05:21:39;99855.75;;;13.64;100.00
60918;BME280;46792;38.854;-9.384;2022-12-18T05:23:39;99848.47;;;13.59;100.00
60918;BME280;46792;38.854;-9.384;2022-12-18T05:25:53;99849.00;;;13.61;100.00
60918;BME280;46792;38.854;-9.384;2022-12-18T05:27:54;99852.00;;;13.54;100.00
60918;BME280;46792;38.854;-9.384;2022-12-18T05:30:14;99851.47;;;13.63;100.00
60918;BME280;46792;38.854;-9.384;2022-12-18T05:32:33;99853.06;;;13.64;100.00
60918;BME280;46792;38.854;-9.384;2022-12-18T05:34:34;99853.88;;;13.59;100.00
60918;BME280;46792;38.854;-9.384;2022-12-18T05:36:34;99857.44;;;13.60;100.00
60918;BME280;46792;38.854;-9.384;2022-12-18T05:38:37;99866.34;;;13.65;100.00
60918;BME280;46792;38.854;-9.384;2022-12-18T05:40:41;99862.00;;;13.69;100.00
60918;BME280;46792;38.854;-9.384;2022-12-18T05:42:42;99873.91;;;13.74;100.00
60918;BME280;46792;38.854;-9.384;2022-12-18T05:45:01;99874.25;;;13.62;100.00
60918;BME280;46792;38.854;-9.384;2022-12-18T05:47:02;99885.38;;;13.55;100.00
60918;BME280;46792;38.854;-9.384;2022-12-18T05:49:02;99882.13;;;13.53;100.00
60918;BME280;46792;38.854;-9.384;2022-12-18T05:51:08;99882.38;;;13.51;100.00
60918;BME280;46792;38.854;-9.384;2022-12-18T05:53:09;99888.06;;;13.60;100.00
60918;BME280;46792;38.854;-9.384;2022-12-18T05:55:09;99890.53;;;13.57;100.00
60918;BME280;46792;38.854;-9.384;2022-12-18T05:57:28;99889.69;;;13.56;100.00
60918;BME280;46792;38.854;-9.384;2022-12-18T05:59:29;99883.19;;;13.62;100.00
60918;BME280;46792;38.854;-9.384;2022-12-18T06:01:30;99888.59;;;13.62;100.00
60918;BME280;46792;38.854;-9.384;2022-12-18T06:03:32;99898.66;;;13.62;100.00
60918;BME280;46792;38.854;-9.384;2022-12-18T06:05:37;99889.69;;;13.66;100.00
60918;BME280;46792;38.854;-9.384;2022-12-18T06:10:35;99904.34;;;13.65;100.00
60918;BME280;46792;38.854;-9.384;2022-12-18T06:12:36;99912.19;;;13.67;100.00
60918;BME280;46792;38.854;-9.384;2022-12-18T06:14:36;99916.28;;;13.69;100.00
60918;BME280;46792;38.854;-9.384;2022-12-18T06:16:37;99908.69;;;13.56;100.00
60918;BME280;46792;38.854;-9.384;2022-12-18T06:18:37;99911.09;;;13.68;100.00
60918;BME280;46792;38.854;-9.384;2022-12-18T06:20:40;99921.41;;;13.66;100.00
60918;BME280;46792;38.854;-9.384;2022-12-18T06:22:41;99917.34;;;13.68;100.00
60918;BME280;46792;38.854;-9.384;2022-12-18T06:24:42;99918.97;;;13.64;100.00
60918;BME280;46792;38.854;-9.384;2022-12-18T06:26:42;99923.31;;;13.71;100.00
60918;BME280;46792;38.854;-9.384;2022-12-18T06:28:57;99927.38;;;13.68;100.00
60918;BME280;46792;38.854;-9.384;2022-12-18T06:31:16;99927.63;;;13.77;100.00
60918;BME280;46792;38.854;-9.384;2022-12-18T06:33:17;99915.19;;;13.71;100.00
60918;BME280;46792;38.854;-9.384;2022-12-18T06:35:17;99919.53;;;13.66;100.00
60918;BME280;46792;38.854;-9.384;2022-12-18T06:40:39;99920.59;;;13.71;100.00
60918;BME280;46792;38.854;-9.384;2022-12-18T06:42:40;99920.63;;;13.60;100.00
60918;BME280;46792;38.854;-9.384;2022-12-18T06:44:41;99924.13;;;13.71;100.00
60918;BME280;46792;38.854;-9.384;2022-12-18T06:46:47;99922.78;;;13.68;100.00
60918;BME280;46792;38.854;-9.384;2022-12-18T06:48:49;99913.25;;;13.76;100.00
60918;BME280;46792;38.854;-9.384;2022-12-18T06:50:50;99904.34;;;13.65;100.00
60918;BME280;46792;38.854;-9.384;2022-12-18T06:57:50;99909.47;;;13.67;100.00
60918;BME280;46792;38.854;-9.384;2022-12-18T06:59:51;99899.47;;;13.57;100.00
60918;BME280;46792;38.854;-9.384;2022-12-18T07:01:52;99903.00;;;13.52;100.00
60918;BME280;46792;38.854;-9.384;2022-12-18T07:03:54;99906.53;;;13.53;100.00
60918;BME280;46792;38.854;-9.384;2022-12-18T07:05:55;99911.41;;;13.56;100.00
60918;BME280;46792;38.854;-9.384;2022-12-18T07:08:14;99894.59;;;13.49;100.00
60918;BME280;46792;38.854;-9.384;2022-12-18T07:10:33;99898.41;;;13.48;100.00
60918;BME280;46792;38.854;-9.384;2022-12-18T07:12:35;99900.56;;;13.46;100.00
60918;BME280;46792;38.854;-9.384;2022-12-18T07:14:35;99901.41;;;13.46;100.00
60918;BME280;46792;38.854;-9.384;2022-12-18T07:16:36;99907.63;;;13.52;100.00
60918;BME280;46792;38.854;-9.384;2022-12-18T07:18:37;99892.41;;;13.56;100.00
60918;BME280;46792;38.854;-9.384;2022-12-18T07:23:16;99904.13;;;13.46;100.00
60918;BME280;46792;38.854;-9.384;2022-12-18T07:25:16;99906.00;;;13.41;100.00
60918;BME280;46792;38.854;-9.384;2022-12-18T07:27:17;99908.72;;;13.35;100.00
60918;BME280;46792;38.854;-9.384;2022-12-18T07:29:18;99907.34;;;13.38;100.00
60918;BME280;46792;38.854;-9.384;2022-12-18T07:31:20;99910.09;;;13.43;100.00
60918;BME280;46792;38.854;-9.384;2022-12-18T07:33:40;99919.03;;;13.44;100.00
60918;BME280;46792;38.854;-9.384;2022-12-18T07:35:43;99914.38;;;13.39;100.00
60918;BME280;46792;38.854;-9.384;2022-12-18T07:37:44;99918.19;;;13.38;100.00
60918;BME280;46792;38.854;-9.384;2022-12-18T07:39:45;99919.56;;;13.35;100.00
60918;BME280;46792;38.854;-9.384;2022-12-18T07:41:46;99916.84;;;13.35;100.00
60918;BME280;46792;38.854;-9.384;2022-12-18T07:44:10;99927.94;;;13.34;100.00
60918;BME280;46792;38.854;-9.384;2022-12-18T07:46:13;99924.97;;;13.35;100.00
60918;BME280;46792;38.854;-9.384;2022-12-18T07:48:28;99928.75;;;13.24;100.00
60918;BME280;46792;38.854;-9.384;2022-12-18T07:53:52;99932.56;;;13.33;100.00
60918;BME280;46792;38.854;-9.384;2022-12-18T07:56:00;99926.34;;;13.43;100.00
60918;BME280;46792;38.854;-9.384;2022-12-18T07:58:03;99928.22;;;13.37;100.00
60918;BME280;46792;38.854;-9.384;2022-12-18T08:00:05;99926.59;;;13.31;100.00
60918;BME280;46792;38.854;-9.384;2022-12-18T08:02:18;99941.78;;;13.37;100.00
60918;BME280;46792;38.854;-9.384;2022-12-18T08:04:19;99937.72;;;13.30;100.00
60918;BME280;46792;38.854;-9.384;2022-12-18T08:06:20;99948.00;;;13.33;100.00
60918;BME280;46792;38.854;-9.384;2022-12-18T08:08:20;99949.13;;;13.27;100.00
60918;BME280;46792;38.854;-9.384;2022-12-18T08:10:21;99956.97;;;13.28;100.00
60918;BME280;46792;38.854;-9.384;2022-12-18T08:12:21;99958.59;;;13.19;100.00
60918;BME280;46792;38.854;-9.384;2022-12-18T08:14:22;99958.06;;;13.22;100.00
60918;BME280;46792;38.854;-9.384;2022-12-18T08:16:24;99954.81;;;13.20;100.00
60918;BME280;46792;38.854;-9.384;2022-12-18T08:18:31;99956.69;;;13.35;100.00
60918;BME280;46792;38.854;-9.384;2022-12-18T08:20:32;99954.25;;;13.28;100.00
60918;BME280;46792;38.854;-9.384;2022-12-18T08:22:34;99954.28;;;13.23;100.00
60918;BME280;46792;38.854;-9.384;2022-12-18T08:24:38;99968.09;;;13.27;100.00
60918;BME280;46792;38.854;-9.384;2022-12-18T08:26:39;99951.00;;;13.26;100.00
60918;BME280;46792;38.854;-9.384;2022-12-18T08:31:15;99950.19;;;13.26;100.00
60918;BME280;46792;38.854;-9.384;2022-12-18T08:33:16;99965.34;;;13.32;100.00
60918;BME280;46792;38.854;-9.384;2022-12-18T08:35:17;99967.56;;;13.24;100.00
60918;BME280;46792;38.854;-9.384;2022-12-18T08:39:57;99974.88;;;13.19;100.00
60918;BME280;46792;38.854;-9.384;2022-12-18T08:41:57;99967.56;;;13.14;100.00
60918;BME280;46792;38.854;-9.384;2022-12-18T08:44:16;99967.84;;;13.23;100.00
60918;BME280;46792;38.854;-9.384;2022-12-18T08:46:38;99970.25;;;13.14;100.00
60918;BME280;46792;38.854;-9.384;2022-12-18T08:48:39;99983.53;;;13.16;100.00
60918;BME280;46792;38.854;-9.384;2022-12-18T08:50:40;99983.53;;;13.11;100.00
60918;BME280;46792;38.854;-9.384;2022-12-18T08:52:40;99983.00;;;13.14;100.00
60918;BME280;46792;38.854;-9.384;2022-12-18T08:54:41;99985.69;;;13.14;100.00
60918;BME280;46792;38.854;-9.384;2022-12-18T08:56:41;99986.25;;;13.16;100.00
60918;BME280;46792;38.854;-9.384;2022-12-18T08:59:00;99986.53;;;13.14;100.00
60918;BME280;46792;38.854;-9.384;2022-12-18T09:01:02;99995.19;;;13.11;100.00
60918;BME280;46792;38.854;-9.384;2022-12-18T09:03:03;99988.41;;;13.29;100.00
60918;BME280;46792;38.854;-9.384;2022-12-18T09:08:19;100012.00;;;13.18;100.00
60918;BME280;46792;38.854;-9.384;2022-12-18T09:10:33;100012.53;;;13.20;100.00
60918;BME280;46792;38.854;-9.384;2022-12-18T09:12:33;100005.25;;;13.21;100.00
60918;BME280;46792;38.854;-9.384;2022-12-18T09:14:35;100014.72;;;13.29;100.00
60918;BME280;46792;38.854;-9.384;2022-12-18T09:16:36;100029.09;;;13.19;100.00
60918;BME280;46792;38.854;-9.384;2022-12-18T09:18:37;100025.84;;;13.22;100.00
60918;BME280;46792;38.854;-9.384;2022-12-18T09:20:38;99999.28;;;13.19;100.00
60918;BME280;46792;38.854;-9.384;2022-12-18T09:22:38;100017.16;;;13.25;100.00
60918;BME280;46792;38.854;-9.384;2022-12-18T09:24:39;100016.63;;;13.28;100.00
60918;BME280;46792;38.854;-9.384;2022-12-18T09:26:40;100012.56;;;13.36;100.00
60918;BME280;46792;38.854;-9.384;2022-12-18T09:28:40;100002.00;;;13.34;100.00
60918;BME280;46792;38.854;-9.384;2022-12-18T09:30:44;100001.69;;;13.36;100.00
60918;BME280;46792;38.854;-9.384;2022-12-18T09:32:45;100003.06;;;13.38;100.00
60918;BME280;46792;38.854;-9.384;2022-12-18T09:34:45;100001.47;;;13.43;100.00
60918;BME280;46792;38.854;-9.384;2022-12-18T09:36:48;100010.38;;;13.38;100.00
60918;BME280;46792;38.854;-9.384;2022-12-18T09:38:48;100014.75;;;13.44;100.00
60918;BME280;46792;38.854;-9.384;2022-12-18T09:40:51;100020.19;;;13.44;100.00
60918;BME280;46792;38.854;-9.384;2022-12-18T09:42:59;100035.63;;;13.49;100.00
60918;BME280;46792;38.854;-9.384;2022-12-18T09:45:07;100025.88;;;13.48;100.00
60918;BME280;46792;38.854;-9.384;2022-12-18T09:49:16;100037.00;;;13.51;100.00
60918;BME280;46792;38.854;-9.384;2022-12-18T09:51:37;100032.66;;;13.45;100.00
60918;BME280;46792;38.854;-9.384;2022-12-18T09:53:41;100031.28;;;13.58;100.00
60918;BME280;46792;38.854;-9.384;2022-12-18T09:55:46;100030.75;;;13.51;100.00
60918;BME280;46792;38.854;-9.384;2022-12-18T09:57:52;100029.69;;;13.52;100.00
60918;BME280;46792;38.854;-9.384;2022-12-18T09:59:57;100030.22;;;13.54;100.00
60918;BME280;46792;38.854;-9.384;2022-12-18T10:01:59;100034.56;;;13.50;100.00
60918;BME280;46792;38.854;-9.384;2022-12-18T10:04:00;100026.66;;;13.64;100.00
60918;BME280;46792;38.854;-9.384;2022-12-18T10:06:18;100037.81;;;13.67;100.00
60918;BME280;46792;38.854;-9.384;2022-12-18T10:10:52;100031.03;;;13.60;100.00
60918;BME280;46792;38.854;-9.384;2022-12-18T10:19:49;100051.09;;;13.69;100.00
60918;BME280;46792;38.854;-9.384;2022-12-18T10:24:16;100059.47;;;13.93;100.00
60918;BME280;46792;38.854;-9.384;2022-12-18T10:26:17;100061.91;;;14.10;100.00
60918;BME280;46792;38.854;-9.384;2022-12-18T10:28:19;100057.53;;;14.20;100.00
60918;BME280;46792;38.854;-9.384;2022-12-18T10:30:22;100073.78;;;14.30;100.00
60918;BME280;46792;38.854;-9.384;2022-12-18T10:32:26;100079.47;;;14.44;100.00
60918;BME280;46792;38.854;-9.384;2022-12-18T10:34:27;100080.28;;;14.44;100.00
60918;BME280;46792;38.854;-9.384;2022-12-18T10:36:27;100062.81;;;14.66;100.00
60918;BME280;46792;38.854;-9.384;2022-12-18T10:38:31;100076.69;;;14.65;100.00
60918;BME280;46792;38.854;-9.384;2022-12-18T10:40:47;100078.63;;;14.59;100.00
60918;BME280;46792;38.854;-9.384;2022-12-18T10:43:12;100076.16;;;14.57;100.00
60918;BME280;46792;38.854;-9.384;2022-12-18T10:45:16;100078.63;;;14.54;100.00
60918;BME280;46792;38.854;-9.384;2022-12-18T10:47:20;100076.75;;;14.44;100.00
60918;BME280;46792;38.854;-9.384;2022-12-18T10:49:47;100075.91;;;14.49;100.00
60918;BME280;46792;38.854;-9.384;2022-12-18T10:52:18;100064.53;;;14.41;100.00
60918;BME280;46792;38.854;-9.384;2022-12-18T10:54:24;100072.41;;;14.38;100.00
60918;BME280;46792;38.854;-9.384;2022-12-18T10:56:27;100074.31;;;14.37;100.00
60918;BME280;46792;38.854;-9.384;2022-12-18T10:58:34;100069.97;;;14.41;100.00
60918;BME280;46792;38.854;-9.384;2022-12-18T11:00:35;100072.69;;;14.41;100.00
60918;BME280;46792;38.854;-9.384;2022-12-18T11:02:37;100067.75;;;14.49;100.00
60918;BME280;46792;38.854;-9.384;2022-12-18T11:04:51;100070.22;;;14.50;100.00
60918;BME280;46792;38.854;-9.384;2022-12-18T11:06:56;100074.03;;;14.39;100.00
60918;BME280;46792;38.854;-9.384;2022-12-18T11:09:21;100074.28;;;14.48;100.00
60918;BME280;46792;38.854;-9.384;2022-12-18T11:11:24;100064.78;;;14.50;100.00
60918;BME280;46792;38.854;-9.384;2022-12-18T11:13:27;100072.09;;;14.50;100.00
60918;BME280;46792;38.854;-9.384;2022-12-18T11:15:30;100054.97;;;14.59;100.00
60918;BME280;46792;38.854;-9.384;2022-12-18T11:17:32;100065.03;;;14.59;100.00
60918;BME280;46792;38.854;-9.384;2022-12-18T11:19:37;100065.81;;;14.70;100.00
60918;BME280;46792;38.854;-9.384;2022-12-18T11:21:40;100052.78;;;14.62;100.00
60918;BME280;46792;38.854;-9.384;2022-12-18T11:23:49;100064.72;;;14.66;100.00
60918;BME280;46792;38.854;-9.384;2022-12-18T11:26:01;100048.69;;;14.69;100.00
60918;BME280;46792;38.854;-9.384;2022-12-18T11:30:40;100042.94;;;14.81;100.00
60918;BME280;46792;38.854;-9.384;2022-12-18T11:33:04;100032.28;;;14.90;100.00
60918;BME280;46792;38.854;-9.384;2022-12-18T11:35:13;100032.00;;;14.92;100.00
60918;BME280;46792;38.854;-9.384;2022-12-18T11:37:17;100042.06;;;14.91;100.00
60918;BME280;46792;38.854;-9.384;2022-12-18T11:39:34;100034.47;;;14.88;100.00
60918;BME280;46792;38.854;-9.384;2022-12-18T11:44:11;100027.56;;;15.06;100.00
60918;BME280;46792;38.854;-9.384;2022-12-18T11:46:36;100021.28;;;15.11;100.00
60918;BME280;46792;38.854;-9.384;2022-12-18T11:49:10;100016.66;;;15.11;100.00
60918;BME280;46792;38.854;-9.384;2022-12-18T11:53:52;100022.00;;;15.27;100.00
60918;BME280;46792;38.854;-9.384;2022-12-18T11:58:58;100013.25;;;15.30;100.00
60918;BME280;46792;38.854;-9.384;2022-12-18T12:03:45;100014.91;;;15.31;100.00
60918;BME280;46792;38.854;-9.384;2022-12-18T12:18:27;100001.34;;;15.20;100.00
60918;BME280;46792;38.854;-9.384;2022-12-18T12:25:25;99996.47;;;15.17;100.00
60918;BME280;46792;38.854;-9.384;2022-12-18T12:32:29;99974.03;;;15.01;100.00
60918;BME280;46792;38.854;-9.384;2022-12-18T12:37:00;99963.41;;;15.05;100.00
60918;BME280;46792;38.854;-9.384;2022-12-18T12:39:30;99960.91;;;15.09;100.00
60918;BME280;46792;38.854;-9.384;2022-12-18T12:41:52;99965.56;;;15.08;100.00
60918;BME280;46792;38.854;-9.384;2022-12-18T12:44:34;99958.47;;;15.12;100.00